Time;durP1;ratioP1;P1;durP2;ratioP2;P2;SDS_P1;SDS_P2;PMS_P1;PMS_P2;Temp;Humidity;BMP_temperature;BMP_pressure;BME280_temperature;BME280_humidity;BME280_pressure;Samples;Min_cycle;Max_cycle;Signal;HPM_P1;HPM_P2
2022/05/14 00:00:17;;;;;;;;;;;;;;;23.69;44.41;99210.16;4479369;32;34108;-85
2022/05/14 00:02:45;;;;;;;;;;;;;;;24.34;43.05;99208.34;4483118;32;34457;-84
2022/05/14 00:05:12;;;;;;;;;;;;;;;24.66;42.34;99213.16;4482218;32;34133;-86
2022/05/14 00:07:40;;;;;;;;;;;;;;;24.99;41.70;99212.53;4469193;32;33364;-86
2022/05/14 00:10:07;;;;;;;;;;;;;;;23.97;43.37;99216.03;4472395;32;34638;-87
2022/05/14 00:15:21;;;;;;;;;;;;;;;23.99;43.80;99205.38;4481242;32;33715;-84
2022/05/14 00:17:49;;;;;;;;;;;;;;;23.75;44.52;99220.47;4453883;32;33990;-86
2022/05/14 00:20:17;;;;;;;;;;;;;;;23.29;45.63;99233.69;4467602;32;34290;-87
2022/05/14 00:22:44;;;;;;;;;;;;;;;23.31;45.63;99226.56;4467581;32;34994;-84
2022/05/14 00:25:11;;;;;;;;;;;;;;;22.89;46.56;99234.28;4478641;32;33687;-85
2022/05/14 00:27:40;;;;;;;;;;;;;;;23.04;46.29;99220.53;4469381;32;34331;-85
2022/05/14 00:30:08;;;;;;;;;;;;;;;23.17;46.02;99225.38;4467469;32;34298;-86
2022/05/14 00:32:37;;;;;;;;;;;;;;;22.99;46.43;99216.31;4468288;32;35640;-87
2022/05/14 00:35:05;;;;;;;;;;;;;;;22.57;47.56;99215.13;4478609;32;33384;-85
2022/05/14 00:37:34;;;;;;;;;;;;;;;22.50;48.04;99215.41;4456171;32;34183;-85
2022/05/14 00:40:04;;;;;;;;;;;;;;;21.30;51.17;99221.03;4481911;32;34322;-85
2022/05/14 00:42:31;;;;;;;;;;;;;;;21.55;50.46;99226.44;4468560;32;34555;-85
2022/05/14 00:45:01;;;;;;;;;;;;;;;21.84;49.77;99220.25;4480152;32;34199;-86
2022/05/14 00:47:29;;;;;;;;;;;;;;;22.33;48.44;99216.87;4479333;32;33502;-84
2022/05/14 00:49:56;;;;;;;;;;;;;;;20.70;52.65;99237.69;4468469;32;33847;-85
2022/05/14 00:52:24;;;;;;;;;;;;;;;21.51;50.72;99233.59;4467005;32;35262;-84
2022/05/14 00:54:55;;;;;;;;;;;;;;;21.70;49.90;99241.78;4479131;32;33987;-84
2022/05/14 00:57:23;;;;;;;;;;;;;;;21.99;49.52;99240.00;4456893;32;33904;-83
2022/05/14 00:59:51;;;;;;;;;;;;;;;22.53;48.10;99229.38;4453300;32;34312;-85
2022/05/14 01:02:19;;;;;;;;;;;;;;;22.15;48.99;99246.53;4467471;32;32603;-85
2022/05/14 01:04:46;;;;;;;;;;;;;;;22.81;47.31;99237.22;4467527;32;35036;-84
2022/05/14 01:07:16;;;;;;;;;;;;;;;22.79;47.45;99244.31;4463030;32;34319;-85
2022/05/14 01:09:44;;;;;;;;;;;;;;;22.91;47.12;99237.75;4469089;32;33906;-86
2022/05/14 01:12:12;;;;;;;;;;;;;;;21.72;50.28;99242.62;4468250;32;35246;-86
2022/05/14 01:14:40;;;;;;;;;;;;;;;22.85;47.52;99237.09;4457044;32;34068;-87
2022/05/14 01:17:07;;;;;;;;;;;;;;;21.69;50.46;99245.34;4467278;32;33479;-86
2022/05/14 01:19:34;;;;;;;;;;;;;;;21.44;51.30;99237.34;4466829;32;33903;-86
2022/05/14 01:22:02;;;;;;;;;;;;;;;22.42;48.56;99228.88;4466859;32;35458;-86
2022/05/14 01:27:20;;;;;;;;;;;;;;;21.95;50.04;99233.09;4468904;32;33409;-85
2022/05/14 01:29:48;;;;;;;;;;;;;;;21.86;50.25;99236.91;4454761;32;34228;-85
2022/05/14 01:32:16;;;;;;;;;;;;;;;22.13;49.44;99232.50;4469088;32;34051;-85
2022/05/14 01:34:44;;;;;;;;;;;;;;;21.80;50.40;99231.81;4479200;32;33576;-86
2022/05/14 01:37:12;;;;;;;;;;;;;;;22.26;48.99;99235.62;4484838;31;34128;-86
2022/05/14 01:39:40;;;;;;;;;;;;;;;20.81;53.16;99241.75;4484774;32;34741;-86
2022/05/14 01:42:08;;;;;;;;;;;;;;;22.03;49.73;99233.72;4469814;32;35226;-86
2022/05/14 01:44:35;;;;;;;;;;;;;;;22.20;49.26;99238.47;4455490;32;34391;-86
2022/05/14 01:47:03;;;;;;;;;;;;;;;21.73;50.52;99243.47;4468735;32;33372;-86
2022/05/14 01:49:30;;;;;;;;;;;;;;;21.64;51.03;99244.63;4468184;32;35007;-85
2022/05/14 01:51:59;;;;;;;;;;;;;;;21.16;52.40;99236.41;4476091;31;33887;-86
2022/05/14 01:54:26;;;;;;;;;;;;;;;20.86;53.01;99239.84;4457189;32;33699;-85
2022/05/14 01:56:54;;;;;;;;;;;;;;;20.91;53.06;99234.47;4483817;31;34226;-84
2022/05/14 01:59:26;;;;;;;;;;;;;;;21.53;51.32;99238.84;4484542;31;33968;-87
2022/05/14 02:01:53;;;;;;;;;;;;;;;20.80;53.31;99232.13;4482815;32;34577;-87
2022/05/14 02:04:21;;;;;;;;;;;;;;;20.36;54.72;99234.16;4479745;32;34822;-85
2022/05/14 02:06:48;;;;;;;;;;;;;;;21.00;53.04;99234.19;4468583;32;33548;-85
2022/05/14 02:09:16;;;;;;;;;;;;;;;21.25;52.09;99236.09;4468805;32;34105;-85
2022/05/14 02:11:43;;;;;;;;;;;;;;;21.53;51.35;99231.78;4478378;32;34730;-86
2022/05/14 02:14:11;;;;;;;;;;;;;;;21.82;50.55;99233.50;4482708;32;33759;-86
2022/05/14 02:16:38;;;;;;;;;;;;;;;22.18;49.57;99232.38;4468788;32;34220;-84
2022/05/14 02:19:06;;;;;;;;;;;;;;;21.99;49.98;99240.88;4468358;32;34425;-86
2022/05/14 02:21:35;;;;;;;;;;;;;;;22.58;48.37;99229.25;4476645;32;34813;-85
2022/05/14 02:24:03;;;;;;;;;;;;;;;22.40;48.84;99229.88;4468922;32;34682;-85
2022/05/14 02:26:31;;;;;;;;;;;;;;;21.83;50.48;99239.66;4484368;32;34066;-86
2022/05/14 02:28:58;;;;;;;;;;;;;;;22.20;49.36;99226.16;4484340;32;34110;-86
2022/05/14 02:31:26;;;;;;;;;;;;;;;21.81;50.36;99228.25;4475943;32;34043;-86
2022/05/14 02:33:54;;;;;;;;;;;;;;;21.41;51.33;99232.16;4469004;32;33575;-86
2022/05/14 02:36:21;;;;;;;;;;;;;;;21.47;51.49;99239.00;4468323;32;33214;-84
2022/05/14 02:38:49;;;;;;;;;;;;;;;20.79;53.18;99240.91;4467873;32;35040;-87
2022/05/14 02:41:16;;;;;;;;;;;;;;;21.14;52.50;99242.59;4460735;32;35097;-88
2022/05/14 02:43:43;;;;;;;;;;;;;;;20.26;55.07;99237.91;4484319;32;34198;-87
2022/05/14 02:46:12;;;;;;;;;;;;;;;19.75;56.73;99253.22;4469008;32;32830;-87
2022/05/14 02:48:40;;;;;;;;;;;;;;;20.27;55.31;99249.34;4468119;32;34621;-86
2022/05/14 02:51:08;;;;;;;;;;;;;;;20.46;54.72;99239.19;4459848;32;35341;-86
2022/05/14 02:53:35;;;;;;;;;;;;;;;19.64;57.15;99256.94;4473748;32;34226;-88
2022/05/14 02:56:03;;;;;;;;;;;;;;;20.69;54.10;99250.00;4481227;31;33024;-84
2022/05/14 03:01:17;;;;;;;;;;;;;;;20.08;55.74;99254.19;4464747;32;33974;-86
2022/05/14 03:03:45;;;;;;;;;;;;;;;20.16;55.37;99255.72;4468224;32;34212;-86
2022/05/14 03:06:13;;;;;;;;;;;;;;;20.92;53.21;99253.78;4479327;32;33379;-87
2022/05/14 03:08:40;;;;;;;;;;;;;;;21.84;50.69;99267.75;4483868;32;34157;-86
2022/05/14 03:11:08;;;;;;;;;;;;;;;21.73;50.92;99256.69;4477746;32;33951;-86
2022/05/14 03:13:35;;;;;;;;;;;;;;;20.94;52.57;99262.50;4454260;32;34004;-87
2022/05/14 03:16:03;;;;;;;;;;;;;;;21.94;50.28;99270.97;4476592;32;33852;-86
2022/05/14 03:18:31;;;;;;;;;;;;;;;21.58;51.01;99265.91;4483598;32;33762;-85
2022/05/14 03:20:58;;;;;;;;;;;;;;;22.17;49.45;99281.69;4478626;32;34091;-86
2022/05/14 03:23:26;;;;;;;;;;;;;;;21.76;50.55;99286.47;4454266;32;33782;-86
2022/05/14 03:25:53;;;;;;;;;;;;;;;22.07;49.64;99289.00;4473317;32;33969;-85
2022/05/14 03:28:20;;;;;;;;;;;;;;;22.61;48.05;99286.38;4483364;32;34690;-84
2022/05/14 03:30:48;;;;;;;;;;;;;;;22.54;48.25;99286.63;4479905;32;35194;-84
2022/05/14 03:33:16;;;;;;;;;;;;;;;21.54;51.16;99290.66;4454202;32;34358;-85
2022/05/14 03:35:43;;;;;;;;;;;;;;;21.54;51.26;99295.94;4459507;32;33827;-86
2022/05/14 03:38:11;;;;;;;;;;;;;;;20.49;54.23;99295.28;4483880;32;34195;-83
2022/05/14 03:40:38;;;;;;;;;;;;;;;20.84;53.38;99294.38;4480894;32;34293;-86
2022/05/14 03:43:05;;;;;;;;;;;;;;;21.18;52.59;99298.72;4468010;32;34132;-87
2022/05/14 03:45:33;;;;;;;;;;;;;;;20.51;54.54;99295.25;4473965;32;33559;-85
2022/05/14 03:48:01;;;;;;;;;;;;;;;20.49;54.79;99290.00;4483394;32;33860;-85
2022/05/14 03:50:28;;;;;;;;;;;;;;;20.67;54.27;99301.84;4481693;32;34903;-83
2022/05/14 03:52:57;;;;;;;;;;;;;;;20.95;53.56;99299.37;4468131;32;34433;-85
2022/05/14 03:55:24;;;;;;;;;;;;;;;20.89;53.89;99296.88;4474366;32;33187;-85
2022/05/14 03:57:52;;;;;;;;;;;;;;;20.72;54.02;99310.53;4482687;32;35058;-86
2022/05/14 04:00:19;;;;;;;;;;;;;;;19.74;57.09;99310.22;4483295;32;34419;-84
2022/05/14 04:02:47;;;;;;;;;;;;;;;21.03;53.47;99310.56;4469360;32;34188;-86
2022/05/14 04:05:15;;;;;;;;;;;;;;;21.54;52.01;99317.06;4478569;32;33177;-85
2022/05/14 04:07:43;;;;;;;;;;;;;;;20.83;54.16;99318.13;4468000;32;34113;-86
2022/05/14 04:10:16;;;;;;;;;;;;;;;21.15;53.02;99325.16;4467879;32;35404;-87
2022/05/14 04:12:43;;;;;;;;;;;;;;;21.28;52.69;99325.69;4467545;32;34058;-87
2022/05/14 04:15:11;;;;;;;;;;;;;;;21.30;52.98;99323.88;4472980;32;34192;-86
2022/05/14 04:17:39;;;;;;;;;;;;;;;21.86;51.36;99327.50;4467801;32;33799;-85
2022/05/14 04:20:07;;;;;;;;;;;;;;;21.21;52.86;99332.03;4467581;32;33975;-85
2022/05/14 04:22:34;;;;;;;;;;;;;;;20.54;55.06;99339.97;4468147;32;33671;-85
2022/05/14 04:25:02;;;;;;;;;;;;;;;22.10;50.57;99339.06;4474417;32;33727;-86
2022/05/14 04:27:30;;;;;;;;;;;;;;;22.72;48.72;99340.59;4453568;32;34945;-86
2022/05/14 04:29:57;;;;;;;;;;;;;;;21.77;51.24;99345.37;4467563;32;34340;-86
2022/05/14 04:32:25;;;;;;;;;;;;;;;21.54;52.12;99346.94;4477209;32;33776;-85
2022/05/14 04:34:52;;;;;;;;;;;;;;;22.15;50.46;99353.94;4468818;32;33927;-86
2022/05/14 04:37:19;;;;;;;;;;;;;;;22.02;50.53;99354.28;4478333;32;34571;-86
2022/05/14 04:39:47;;;;;;;;;;;;;;;22.96;48.10;99352.16;4483378;32;34131;-85
2022/05/14 04:42:15;;;;;;;;;;;;;;;23.05;47.77;99351.81;4478782;32;34807;-85
2022/05/14 04:44:42;;;;;;;;;;;;;;;23.44;46.87;99359.25;4457560;32;33281;-85
2022/05/14 04:47:10;;;;;;;;;;;;;;;22.92;47.75;99362.88;4453147;32;34278;-86
2022/05/14 04:49:39;;;;;;;;;;;;;;;23.15;47.14;99356.81;4467518;32;34191;-86
2022/05/14 04:52:07;;;;;;;;;;;;;;;24.23;44.51;99365.94;4468112;32;33862;-86
2022/05/14 04:54:35;;;;;;;;;;;;;;;24.22;44.14;99358.94;4461716;32;33903;-86
2022/05/14 04:57:03;;;;;;;;;;;;;;;23.46;46.03;99364.50;4453118;32;33848;-85
2022/05/14 04:59:30;;;;;;;;;;;;;;;23.44;46.18;99358.38;4453234;32;35111;-85
2022/05/14 05:04:46;;;;;;;;;;;;;;;23.88;45.05;99374.44;4474294;32;34145;-85
2022/05/14 05:07:13;;;;;;;;;;;;;;;23.44;45.93;99374.25;4468660;32;34127;-84
2022/05/14 05:09:43;;;;;;;;;;;;;;;23.39;46.10;99370.94;4483013;32;35239;-89
2022/05/14 05:12:11;;;;;;;;;;;;;;;23.45;45.82;99378.63;4482342;32;33843;-85
2022/05/14 05:14:38;;;;;;;;;;;;;;;24.96;42.79;99377.13;4481181;32;34307;-85
2022/05/14 05:17:05;;;;;;;;;;;;;;;24.73;42.73;99384.25;4482176;32;34217;-85
2022/05/14 05:19:33;;;;;;;;;;;;;;;25.14;42.09;99386.13;4467136;32;34278;-85
2022/05/14 05:22:00;;;;;;;;;;;;;;;25.11;42.32;99386.25;4468296;32;34312;-85
2022/05/14 05:24:27;;;;;;;;;;;;;;;25.13;41.51;99395.88;4480634;32;34102;-85
2022/05/14 05:26:55;;;;;;;;;;;;;;;23.65;45.52;99396.44;4478464;32;34309;-87
2022/05/14 05:29:22;;;;;;;;;;;;;;;24.76;43.14;99399.19;4481368;32;34294;-85
2022/05/14 05:31:49;;;;;;;;;;;;;;;25.32;41.98;99395.06;4458026;32;34054;-84
2022/05/14 05:34:17;;;;;;;;;;;;;;;26.12;39.42;99397.63;4476887;32;33393;-86
2022/05/14 05:36:44;;;;;;;;;;;;;;;24.60;43.02;99414.00;4466760;32;34057;-86
2022/05/14 05:39:11;;;;;;;;;;;;;;;23.30;44.99;99410.03;4452637;32;34014;-87
2022/05/14 05:41:39;;;;;;;;;;;;;;;23.66;44.32;99414.03;4452134;32;33833;-85
2022/05/14 05:44:06;;;;;;;;;;;;;;;24.81;41.37;99405.16;4477482;32;34431;-84
2022/05/14 05:46:33;;;;;;;;;;;;;;;24.48;42.13;99424.19;4479577;32;34371;-84
2022/05/14 05:49:01;;;;;;;;;;;;;;;25.32;40.49;99422.47;4461096;32;33828;-84
2022/05/14 05:51:28;;;;;;;;;;;;;;;24.66;41.61;99422.56;4461975;32;33707;-83
2022/05/14 05:56:51;;;;;;;;;;;;;;;25.35;40.41;99416.19;4466740;32;34272;-86
2022/05/14 05:59:20;;;;;;;;;;;;;;;25.28;39.48;99420.88;4474176;32;33706;-83
2022/05/14 06:01:47;;;;;;;;;;;;;;;25.48;38.88;99418.19;4482025;32;34133;-81
2022/05/14 06:04:15;;;;;;;;;;;;;;;25.16;39.31;99421.41;4459574;32;33093;-84
2022/05/14 06:06:42;;;;;;;;;;;;;;;25.30;39.68;99424.31;4476897;31;34892;-84
2022/05/14 06:09:10;;;;;;;;;;;;;;;26.00;38.32;99420.34;4494219;31;33846;-83
2022/05/14 06:11:38;;;;;;;;;;;;;;;26.49;37.22;99428.69;4481346;32;33178;-84
2022/05/14 06:14:05;;;;;;;;;;;;;;;27.06;34.85;99424.06;4468613;32;34100;-85
2022/05/14 06:16:32;;;;;;;;;;;;;;;25.23;37.47;99429.06;4483178;32;34952;-88
2022/05/14 06:19:00;;;;;;;;;;;;;;;26.26;36.46;99427.09;4483804;32;35246;-84
2022/05/14 06:21:27;;;;;;;;;;;;;;;26.28;35.65;99435.84;4479346;32;34147;-83
2022/05/14 06:23:56;;;;;;;;;;;;;;;26.99;34.01;99421.78;4478699;31;33821;-82
2022/05/14 06:26:24;;;;;;;;;;;;;;;25.71;36.46;99435.75;4469056;32;33628;-83
2022/05/14 06:28:51;;;;;;;;;;;;;;;25.70;36.81;99430.53;4468232;32;33897;-83
2022/05/14 06:31:18;;;;;;;;;;;;;;;26.41;35.43;99433.47;4468535;32;33772;-83
2022/05/14 06:33:46;;;;;;;;;;;;;;;25.64;36.76;99426.34;4468975;32;33277;-82
2022/05/14 06:36:13;;;;;;;;;;;;;;;25.04;37.33;99435.16;4472300;32;35000;-83
2022/05/14 06:38:41;;;;;;;;;;;;;;;25.31;36.60;99436.69;4469019;32;35304;-84
2022/05/14 06:41:09;;;;;;;;;;;;;;;24.53;37.38;99439.88;4454113;32;34298;-84
2022/05/14 06:43:37;;;;;;;;;;;;;;;24.39;37.22;99444.87;4469142;32;34227;-83
2022/05/14 06:46:04;;;;;;;;;;;;;;;25.63;35.44;99429.94;4476745;32;33945;-83
2022/05/14 06:48:32;;;;;;;;;;;;;;;25.06;34.81;99443.91;4467701;32;34772;-84
2022/05/14 06:51:02;;;;;;;;;;;;;;;26.22;32.72;99440.59;4491370;31;33666;-83
2022/05/14 06:53:29;;;;;;;;;;;;;;;26.31;33.04;99438.34;4479518;32;34004;-85
2022/05/14 06:55:57;;;;;;;;;;;;;;;26.35;32.25;99447.03;4468784;32;34317;-86
2022/05/14 06:58:32;;;;;;;;;;;;;;;26.50;32.34;99445.50;4467238;32;34511;-84
2022/05/14 07:00:59;;;;;;;;;;;;;;;25.34;33.79;99456.91;4463270;32;34531;-87
2022/05/14 07:09:01;;;;;;;;;;;;;;;24.88;34.37;99459.66;4482386;31;34197;-84
2022/05/14 07:11:28;;;;;;;;;;;;;;;25.28;33.50;99457.19;4483684;32;34097;-85
2022/05/14 07:13:55;;;;;;;;;;;;;;;25.61;33.63;99461.03;4483811;32;33187;-84
2022/05/14 07:16:24;;;;;;;;;;;;;;;25.77;32.60;99450.56;4479700;32;34428;-85
2022/05/14 07:18:53;;;;;;;;;;;;;;;25.58;33.11;99462.94;4482519;32;35347;-83
2022/05/14 07:21:26;;;;;;;;;;;;;;;26.99;30.91;99457.25;4483609;32;33988;-85
2022/05/14 07:23:54;;;;;;;;;;;;;;;27.23;30.97;99454.31;4463105;32;33074;-83
2022/05/14 07:26:21;;;;;;;;;;;;;;;26.11;32.40;99457.91;4457874;32;34125;-84
2022/05/14 07:28:48;;;;;;;;;;;;;;;25.66;32.69;99463.47;4483522;32;35185;-83
2022/05/14 07:31:16;;;;;;;;;;;;;;;25.87;33.29;99459.87;4478608;32;33817;-83
2022/05/14 07:33:43;;;;;;;;;;;;;;;26.34;32.37;99448.84;4470383;32;34139;-83
2022/05/14 07:36:12;;;;;;;;;;;;;;;26.36;32.68;99465.56;4496346;31;35019;-84
2022/05/14 07:38:40;;;;;;;;;;;;;;;26.76;31.98;99458.38;4492709;31;35171;-83
2022/05/14 07:41:08;;;;;;;;;;;;;;;27.28;31.23;99458.47;4453521;32;33727;-83
2022/05/14 07:43:35;;;;;;;;;;;;;;;26.61;32.23;99462.66;4459463;32;34180;-84
2022/05/14 07:46:03;;;;;;;;;;;;;;;26.75;31.86;99461.97;4479652;32;34355;-83
2022/05/14 07:48:32;;;;;;;;;;;;;;;26.16;31.29;99461.19;4453654;32;35205;-87
2022/05/14 07:51:00;;;;;;;;;;;;;;;25.79;31.89;99454.03;4456779;32;34239;-83
2022/05/14 07:53:30;;;;;;;;;;;;;;;25.62;32.05;99457.44;4460476;32;33117;-86
2022/05/14 07:55:58;;;;;;;;;;;;;;;27.09;29.23;99455.00;4460744;32;34737;-87
2022/05/14 07:58:25;;;;;;;;;;;;;;;26.73;29.84;99457.66;4478147;32;35072;-81
2022/05/14 08:00:52;;;;;;;;;;;;;;;27.64;29.33;99458.34;4469579;32;34061;-87
2022/05/14 08:03:23;;;;;;;;;;;;;;;26.29;28.89;99453.53;4453361;32;33841;-83
2022/05/14 08:05:55;;;;;;;;;;;;;;;26.29;28.79;99458.84;4467797;32;35086;-84
2022/05/14 08:08:23;;;;;;;;;;;;;;;27.24;28.68;99464.00;4467709;32;34469;-84
2022/05/14 08:10:51;;;;;;;;;;;;;;;26.36;28.59;99456.72;4477913;31;34127;-82
2022/05/14 08:13:19;;;;;;;;;;;;;;;26.11;29.95;99457.03;4483489;32;33460;-82
2022/05/14 08:15:47;;;;;;;;;;;;;;;26.31;29.31;99458.75;4483364;32;35246;-84
2022/05/14 08:18:15;;;;;;;;;;;;;;;26.77;28.56;99451.25;4483355;32;34080;-83
2022/05/14 08:20:42;;;;;;;;;;;;;;;26.05;29.42;99455.50;4459603;32;34101;-84
2022/05/14 08:25:57;;;;;;;;;;;;;;;26.28;29.32;99451.78;4455680;32;35758;-84
2022/05/14 08:28:24;;;;;;;;;;;;;;;26.74;28.86;99454.91;4480353;32;34290;-86
2022/05/14 08:30:51;;;;;;;;;;;;;;;26.20;28.63;99449.47;4483698;32;34230;-86
2022/05/14 08:33:19;;;;;;;;;;;;;;;26.17;28.83;99454.94;4483446;32;34238;-84
2022/05/14 08:35:47;;;;;;;;;;;;;;;26.77;27.37;99453.91;4482301;32;34272;-86
2022/05/14 08:38:15;;;;;;;;;;;;;;;26.17;28.93;99452.28;4471194;32;35324;-85
2022/05/14 08:40:45;;;;;;;;;;;;;;;26.85;28.11;99457.06;4453542;32;33629;-84
2022/05/14 08:43:14;;;;;;;;;;;;;;;26.63;27.07;99452.81;4453189;32;33252;-84
2022/05/14 08:45:41;;;;;;;;;;;;;;;26.75;26.64;99443.38;4453594;32;34875;-84
2022/05/14 08:48:09;;;;;;;;;;;;;;;26.79;26.65;99449.41;4472361;32;34356;-84
2022/05/14 08:50:37;;;;;;;;;;;;;;;26.41;27.02;99452.09;4482878;32;33679;-83
2022/05/14 08:53:07;;;;;;;;;;;;;;;26.16;25.10;99450.56;4469035;32;33514;-83
2022/05/14 08:55:46;;;;;;;;;;;;;;;26.08;25.75;99443.88;4469027;32;34672;-84
2022/05/14 08:58:18;;;;;;;;;;;;;;;26.08;26.47;99446.56;4459577;32;34038;-85
2022/05/14 09:00:46;;;;;;;;;;;;;;;26.16;26.77;99447.06;4463014;32;34747;-84
2022/05/14 09:03:13;;;;;;;;;;;;;;;27.08;24.19;99443.47;4482481;32;33410;-84
2022/05/14 09:05:42;;;;;;;;;;;;;;;25.95;26.19;99443.59;4467211;32;34951;-84
2022/05/14 09:08:10;;;;;;;;;;;;;;;25.57;26.88;99454.13;4467212;32;33955;-86
2022/05/14 09:10:41;;;;;;;;;;;;;;;26.19;25.76;99447.78;4466850;32;34787;-85
2022/05/14 09:13:14;;;;;;;;;;;;;;;26.06;27.55;99454.56;4455570;32;34157;-84
2022/05/14 09:15:47;;;;;;;;;;;;;;;26.06;27.24;99446.59;4477069;32;34386;-84
2022/05/14 09:18:19;;;;;;;;;;;;;;;25.99;26.91;99438.97;4460558;32;34256;-83
2022/05/14 09:20:51;;;;;;;;;;;;;;;26.38;26.53;99449.56;4467182;32;33926;-82
2022/05/14 09:23:25;;;;;;;;;;;;;;;26.23;26.46;99450.28;4481149;32;33225;-84
2022/05/14 09:25:52;;;;;;;;;;;;;;;26.34;27.09;99451.50;4482692;32;34236;-84
2022/05/14 09:28:35;;;;;;;;;;;;;;;26.79;26.62;99446.75;4468180;32;34866;-85
2022/05/14 09:31:03;;;;;;;;;;;;;;;26.13;25.90;99455.16;4456488;32;34850;-83
2022/05/14 09:33:42;;;;;;;;;;;;;;;26.24;26.43;99450.19;4469255;32;33507;-84
2022/05/14 09:36:31;;;;;;;;;;;;;;;25.89;26.47;99446.53;4475322;32;35232;-84
2022/05/14 09:39:03;;;;;;;;;;;;;;;26.98;26.75;99447.53;4476872;32;35654;-82
2022/05/14 09:41:37;;;;;;;;;;;;;;;27.17;26.59;99453.69;4470827;32;33961;-84
2022/05/14 09:44:04;;;;;;;;;;;;;;;26.99;26.29;99448.41;4459179;32;33932;-79
2022/05/14 09:46:32;;;;;;;;;;;;;;;26.82;27.26;99442.13;4481701;32;34293;-83
2022/05/14 09:49:01;;;;;;;;;;;;;;;27.67;25.05;99440.50;4469996;32;34457;-84
2022/05/14 09:51:35;;;;;;;;;;;;;;;26.83;25.70;99443.84;4482385;32;33682;-84
2022/05/14 09:54:07;;;;;;;;;;;;;;;27.15;26.15;99428.94;4455010;32;33416;-83
2022/05/14 09:56:40;;;;;;;;;;;;;;;27.57;24.79;99424.97;4454569;32;35171;-84
2022/05/14 09:59:29;;;;;;;;;;;;;;;26.81;26.65;99444.84;4472157;32;35182;-83
2022/05/14 10:02:10;;;;;;;;;;;;;;;27.02;26.69;99427.81;4468669;32;33741;-84
2022/05/14 10:04:56;;;;;;;;;;;;;;;27.81;24.63;99432.66;4461662;32;34252;-84
2022/05/14 10:07:42;;;;;;;;;;;;;;;28.22;25.29;99425.03;4473191;32;34004;-85
2022/05/14 10:10:28;;;;;;;;;;;;;;;28.02;24.28;99426.16;4471738;32;35368;-84
2022/05/14 10:13:03;;;;;;;;;;;;;;;27.60;25.08;99430.16;4468840;32;33905;-86
2022/05/14 10:15:45;;;;;;;;;;;;;;;27.94;25.69;99433.69;4454418;32;34281;-86
2022/05/14 10:18:12;;;;;;;;;;;;;;;28.42;24.69;99417.78;4473316;32;34935;-85
2022/05/14 10:20:58;;;;;;;;;;;;;;;26.44;26.96;99420.00;4483971;32;34523;-84
2022/05/14 10:26:45;;;;;;;;;;;;;;;27.19;26.35;99423.47;4480288;32;33556;-85
2022/05/14 10:29:26;;;;;;;;;;;;;;;27.85;26.35;99420.91;4485538;31;33988;-83
2022/05/14 10:32:00;;;;;;;;;;;;;;;27.49;26.20;99405.87;4468283;32;34253;-83
2022/05/14 10:34:45;;;;;;;;;;;;;;;27.50;26.27;99414.72;4474887;32;34322;-84
2022/05/14 10:37:28;;;;;;;;;;;;;;;27.56;26.16;99409.09;4455246;32;34247;-84
2022/05/14 10:40:07;;;;;;;;;;;;;;;26.72;26.07;99408.06;4479601;31;34226;-84
2022/05/14 10:42:53;;;;;;;;;;;;;;;26.50;27.79;99419.75;4498024;31;34269;-86
2022/05/14 10:45:22;;;;;;;;;;;;;;;26.89;27.40;99410.75;4468105;32;34034;-85
2022/05/14 10:47:58;;;;;;;;;;;;;;;26.48;25.67;99416.31;4468355;32;32866;-83
2022/05/14 10:50:29;;;;;;;;;;;;;;;28.57;24.65;99411.56;4461768;32;34750;-84
2022/05/14 10:52:57;;;;;;;;;;;;;;;27.41;23.34;99402.78;4482808;31;33084;-84
2022/05/14 10:55:26;;;;;;;;;;;;;;;27.80;24.45;99407.78;4466614;32;34495;-84
2022/05/14 10:57:54;;;;;;;;;;;;;;;28.96;22.87;99403.03;4486555;31;34093;-82
2022/05/14 11:00:29;;;;;;;;;;;;;;;28.61;23.83;99397.97;4472292;31;34990;-86
2022/05/14 11:03:02;;;;;;;;;;;;;;;28.32;23.05;99406.72;4473591;32;34407;-87
2022/05/14 11:05:32;;;;;;;;;;;;;;;28.00;24.22;99401.41;4475182;31;34026;-83
2022/05/14 11:08:09;;;;;;;;;;;;;;;29.05;22.52;99397.19;4458494;32;33290;-82
2022/05/14 11:10:37;;;;;;;;;;;;;;;27.71;25.03;99399.44;4461667;31;35010;-81
2022/05/14 11:13:26;;;;;;;;;;;;;;;28.16;23.78;99395.22;4465483;32;34178;-83
2022/05/14 11:16:07;;;;;;;;;;;;;;;27.75;24.51;99391.22;4482021;32;33892;-84
2022/05/14 11:18:48;;;;;;;;;;;;;;;28.34;26.00;99396.84;4457263;32;33205;-83
2022/05/14 11:21:18;;;;;;;;;;;;;;;27.94;25.19;99401.72;4464800;32;34460;-82
2022/05/14 11:24:03;;;;;;;;;;;;;;;27.88;25.92;99394.06;4499283;31;35090;-81
2022/05/14 11:26:31;;;;;;;;;;;;;;;27.69;25.76;99395.97;4479128;31;33953;-81
2022/05/14 11:29:10;;;;;;;;;;;;;;;27.80;26.18;99393.63;4472184;32;33182;-81
2022/05/14 11:31:40;;;;;;;;;;;;;;;27.57;23.62;99385.03;4477691;32;34360;-80
2022/05/14 11:34:22;;;;;;;;;;;;;;;28.29;23.20;99391.75;4454367;32;34081;-82
2022/05/14 11:36:51;;;;;;;;;;;;;;;27.58;23.05;99385.91;4453656;32;34803;-82
2022/05/14 11:39:21;;;;;;;;;;;;;;;27.93;23.29;99388.50;4455581;32;33481;-81
2022/05/14 11:41:53;;;;;;;;;;;;;;;27.67;23.53;99381.88;4476915;31;33946;-82
2022/05/14 11:44:32;;;;;;;;;;;;;;;27.59;24.16;99380.50;4484951;31;34633;-82
2022/05/14 11:47:00;;;;;;;;;;;;;;;27.77;23.53;99377.78;4463487;32;34740;-83
2022/05/14 11:49:35;;;;;;;;;;;;;;;28.48;22.70;99378.25;4480126;32;33167;-81
2022/05/14 11:52:08;;;;;;;;;;;;;;;28.57;21.21;99375.09;4459296;32;34108;-83
2022/05/14 11:54:55;;;;;;;;;;;;;;;27.82;22.80;99371.28;4477174;32;34472;-82
2022/05/14 11:57:24;;;;;;;;;;;;;;;27.78;24.19;99375.06;4470989;32;34898;-81
2022/05/14 12:00:21;;;;;;;;;;;;;;;28.65;21.73;99382.63;4467631;32;34299;-82
2022/05/14 12:02:50;;;;;;;;;;;;;;;28.12;22.81;99387.38;4460738;32;33927;-82
2022/05/14 12:05:23;;;;;;;;;;;;;;;27.33;24.40;99370.38;4453388;32;34850;-82
2022/05/14 12:08:09;;;;;;;;;;;;;;;27.57;23.43;99373.53;4464454;32;34351;-81
2022/05/14 12:10:41;;;;;;;;;;;;;;;28.02;23.08;99375.50;4479088;32;33556;-83
2022/05/14 12:13:09;;;;;;;;;;;;;;;27.17;24.65;99365.84;4464102;32;34030;-82
2022/05/14 12:15:47;;;;;;;;;;;;;;;27.45;25.38;99375.03;4467118;31;33875;-85
2022/05/14 12:18:14;;;;;;;;;;;;;;;27.38;25.55;99363.84;4464231;32;33322;-83
2022/05/14 12:20:43;;;;;;;;;;;;;;;27.11;25.54;99371.47;4456410;32;33062;-85
2022/05/14 12:23:14;;;;;;;;;;;;;;;27.70;24.26;99373.75;4467198;32;33598;-83
2022/05/14 12:25:41;;;;;;;;;;;;;;;28.35;21.91;99366.56;4453438;32;35352;-85
2022/05/14 12:28:19;;;;;;;;;;;;;;;27.41;23.80;99358.38;4479758;32;34279;-83
2022/05/14 12:33:37;;;;;;;;;;;;;;;28.30;21.46;99364.16;4463840;32;33384;-82
2022/05/14 12:36:05;;;;;;;;;;;;;;;28.07;24.19;99353.91;4476637;32;33956;-84
2022/05/14 12:38:36;;;;;;;;;;;;;;;27.97;23.96;99363.41;4478833;32;34014;-83
2022/05/14 12:41:03;;;;;;;;;;;;;;;28.56;22.71;99367.16;4467786;32;33380;-84
2022/05/14 12:43:31;;;;;;;;;;;;;;;28.25;21.87;99360.87;4453657;32;34024;-83
2022/05/14 12:46:00;;;;;;;;;;;;;;;28.50;22.54;99363.03;4470559;32;34371;-85
2022/05/14 12:48:27;;;;;;;;;;;;;;;28.48;23.26;99359.59;4475153;32;33790;-84
2022/05/14 12:50:56;;;;;;;;;;;;;;;28.02;23.29;99362.19;4453142;32;33177;-83
2022/05/14 12:53:34;;;;;;;;;;;;;;;27.98;23.07;99359.78;4471875;32;35041;-83
2022/05/14 12:56:02;;;;;;;;;;;;;;;27.02;23.07;99350.66;4474658;32;35207;-83
2022/05/14 12:58:31;;;;;;;;;;;;;;;28.00;21.48;99342.78;4472120;32;33629;-82
2022/05/14 13:00:58;;;;;;;;;;;;;;;27.93;22.11;99346.72;4458912;32;32952;-83
2022/05/14 13:03:44;;;;;;;;;;;;;;;27.59;22.53;99340.53;4475210;32;34047;-83
2022/05/14 13:06:17;;;;;;;;;;;;;;;27.54;22.86;99339.94;4481593;32;34171;-84
2022/05/14 13:08:49;;;;;;;;;;;;;;;27.53;23.93;99335.53;4460032;32;34975;-84
2022/05/14 13:11:17;;;;;;;;;;;;;;;28.73;21.23;99321.69;4474491;32;34020;-84
2022/05/14 13:13:49;;;;;;;;;;;;;;;28.62;21.75;99327.66;4456120;31;34900;-85
2022/05/14 13:16:16;;;;;;;;;;;;;;;27.91;23.81;99331.75;4473327;32;34111;-86
2022/05/14 13:18:53;;;;;;;;;;;;;;;28.16;22.41;99331.25;4482293;32;33802;-83
2022/05/14 13:21:23;;;;;;;;;;;;;;;27.36;24.62;99322.28;4481367;32;32892;-84
2022/05/14 13:23:52;;;;;;;;;;;;;;;27.65;23.98;99310.94;4482223;32;34137;-86
2022/05/14 13:26:28;;;;;;;;;;;;;;;27.52;25.29;99320.50;4470388;32;35149;-84
2022/05/14 13:29:04;;;;;;;;;;;;;;;26.21;25.30;99314.81;4484262;32;33538;-85